Terminal Aerodrome Forecast
Issued by NWS

Home | Current Version | Previous Version | Text Only | Print | Product List | Glossary On
Versions: 1 2 3 4 5 6 7 8 9 10 11 12 13 14 15 16 17 18 19 20 21 22 23 24 25
000
FTUS41 KILN 140400 AAC
TAFLUK
TAF AMD
KLUK 140427Z 1404/1424 22005KT P6SM BKN035
     FM140800 23004KT 5SM BR OVC025
     FM141100 24006KT 5SM -SHRA VCTS BKN035CB
     FM141500 23010KT P6SM VCSH SCT035 BKN100
     FM142000 25008KT P6SM VCTS BKN040CB=

USA.gov is the U.S. government's official web portal to all federal, state and local government web resources and services.